Time;durP1;ratioP1;P1;durP2;ratioP2;P2;SDS_P1;SDS_P2;PMS_P1;PMS_P2;Temp;Humidity;BMP_temperature;BMP_pressure;BME280_temperature;BME280_humidity;BME280_pressure;Samples;Min_cycle;Max_cycle;Signal;HPM_P1;HPM_P2
2023/06/02 00:01:06;;;;;;;7.28;3.33;;;18.70;78.70;;;;;;5036706;28;20080;-74
2023/06/02 00:03:34;;;;;;;8.82;2.58;;;18.70;78.60;;;;;;5036686;28;20084;-75
2023/06/02 00:06:01;;;;;;;5.35;3.00;;;18.70;78.40;;;;;;5036517;28;20438;-74
2023/06/02 00:08:27;;;;;;;7.97;2.72;;;18.70;78.30;;;;;;5036720;28;20021;-75
2023/06/02 00:10:53;;;;;;;8.32;2.75;;;18.70;78.10;;;;;;5035284;28;20040;-75
2023/06/02 00:13:20;;;;;;;5.18;2.90;;;18.70;78.10;;;;;;5036708;28;20026;-74
2023/06/02 00:15:45;;;;;;;8.38;3.08;;;18.50;78.00;;;;;;5036521;28;20044;-74
2023/06/02 00:18:11;;;;;;;4.97;2.30;;;18.60;78.00;;;;;;5036492;28;20033;-74
2023/06/02 00:20:37;;;;;;;8.00;2.60;;;18.60;78.00;;;;;;5040429;28;20022;-74
2023/06/02 00:23:03;;;;;;;10.02;2.85;;;18.60;78.10;;;;;;5041424;28;20038;-74
2023/06/02 00:25:32;;;;;;;7.28;2.53;;;18.50;78.30;;;;;;5033824;28;20100;-73
2023/06/02 00:27:58;;;;;;;5.07;2.42;;;18.50;78.20;;;;;;5035124;28;20128;-73
2023/06/02 00:30:24;;;;;;;10.25;2.70;;;18.50;78.30;;;;;;5036109;28;20079;-73
2023/06/02 00:32:49;;;;;;;6.03;2.47;;;18.40;78.30;;;;;;5036442;28;20030;-74
2023/06/02 00:35:15;;;;;;;8.43;2.85;;;18.50;78.40;;;;;;5035817;28;20022;-74
2023/06/02 00:37:41;;;;;;;6.93;2.58;;;18.50;78.40;;;;;;5051731;28;20029;-74
2023/06/02 00:40:07;;;;;;;9.52;2.83;;;18.50;78.40;;;;;;5036037;28;20398;-74
2023/06/02 00:42:33;;;;;;;7.80;2.92;;;18.50;78.30;;;;;;5051499;28;20108;-74
2023/06/02 00:44:58;;;;;;;6.43;2.53;;;18.50;78.50;;;;;;5035849;28;20551;-73
2023/06/02 00:47:24;;;;;;;10.32;2.63;;;18.50;78.30;;;;;;5035943;28;20026;-74
2023/06/02 00:49:49;;;;;;;10.57;3.17;;;18.50;78.30;;;;;;5035745;28;20057;-74
2023/06/02 00:52:18;;;;;;;6.65;2.70;;;18.50;78.40;;;;;;5035852;28;20064;-74
2023/06/02 00:54:43;;;;;;;9.57;3.03;;;18.50;78.50;;;;;;5035679;28;20073;-74
2023/06/02 00:57:09;;;;;;;4.90;2.33;;;18.40;78.60;;;;;;5035768;28;20506;-74
2023/06/02 00:59:38;;;;;;;9.15;2.33;;;18.40;78.70;;;;;;5035732;28;20034;-74
2023/06/02 01:02:04;;;;;;;8.30;2.00;;;18.40;78.70;;;;;;5035546;28;20525;-74
2023/06/02 01:04:31;;;;;;;6.53;2.63;;;18.40;78.90;;;;;;5035381;28;20034;-75
2023/06/02 01:07:00;;;;;;;12.00;2.30;;;18.40;78.80;;;;;;5034972;28;20027;-74
2023/06/02 01:09:26;;;;;;;5.63;2.10;;;18.40;78.80;;;;;;5035581;28;20112;-74
2023/06/02 01:11:52;;;;;;;7.45;2.72;;;18.40;79.10;;;;;;5035275;28;20018;-73
2023/06/02 01:14:18;;;;;;;7.75;2.67;;;18.40;78.50;;;;;;5035493;28;20429;-74
2023/06/02 01:16:44;;;;;;;7.88;2.58;;;18.30;78.50;;;;;;5050713;28;20072;-74
2023/06/02 01:19:13;;;;;;;6.68;2.30;;;18.30;78.40;;;;;;5035132;28;20048;-73
2023/06/02 01:21:40;;;;;;;10.35;3.35;;;18.30;78.40;;;;;;5035251;28;20095;-74
2023/06/02 01:24:06;;;;;;;10.68;3.20;;;18.30;78.50;;;;;;5035252;28;20021;-74
2023/06/02 01:26:34;;;;;;;11.93;3.08;;;18.20;78.30;;;;;;5035112;28;20032;-74
2023/06/02 01:29:03;;;;;;;9.32;3.20;;;18.10;78.30;;;;;;5035176;28;20029;-74
2023/06/02 01:31:34;;;;;;;8.63;3.35;;;18.20;78.00;;;;;;5035062;28;20104;-74
2023/06/02 01:34:16;;;;;;;8.10;3.13;;;18.10;77.90;;;;;;5034845;28;20033;-73
2023/06/02 01:36:44;;;;;;;7.93;3.08;;;18.20;77.90;;;;;;5034961;28;20032;-74
2023/06/02 01:39:11;;;;;;;11.45;3.10;;;18.20;77.80;;;;;;5034962;28;20033;-74
2023/06/02 01:41:41;;;;;;;9.15;2.67;;;18.10;77.60;;;;;;5034803;28;20076;-75
2023/06/02 01:44:07;;;;;;;10.40;2.92;;;18.10;77.50;;;;;;5034978;28;20105;-76
2023/06/02 01:46:33;;;;;;;8.55;2.33;;;18.20;77.30;;;;;;5034518;28;20100;-76
2023/06/02 01:48:59;;;;;;;9.32;2.45;;;18.20;77.10;;;;;;5034908;28;20025;-76
2023/06/02 01:51:24;;;;;;;9.05;2.67;;;18.10;76.90;;;;;;5034716;28;20021;-76
2023/06/02 01:53:50;;;;;;;9.27;2.50;;;18.10;76.70;;;;;;5049962;28;20056;-76
2023/06/02 01:56:16;;;;;;;9.02;3.08;;;18.10;76.70;;;;;;5034606;28;20356;-75
2023/06/02 01:58:42;;;;;;;10.57;2.15;;;18.10;76.50;;;;;;5034756;28;20037;-75
2023/06/02 02:01:07;;;;;;;12.30;2.85;;;18.10;76.50;;;;;;5034360;28;20106;-76
2023/06/02 02:03:33;;;;;;;9.27;2.58;;;18.00;76.60;;;;;;5034627;28;20105;-76
2023/06/02 02:05:59;;;;;;;10.20;2.67;;;18.00;76.50;;;;;;5034572;28;20026;-76
2023/06/02 02:08:24;;;;;;;7.57;2.92;;;18.10;76.60;;;;;;5034594;28;20017;-76
2023/06/02 02:10:50;;;;;;;8.52;2.78;;;18.00;76.30;;;;;;5034466;28;20382;-75
2023/06/02 02:13:16;;;;;;;11.13;2.60;;;18.10;76.30;;;;;;5034361;28;20096;-75
2023/06/02 02:15:41;;;;;;;10.48;2.80;;;18.00;76.30;;;;;;5049649;28;20533;-75
2023/06/02 02:18:07;;;;;;;9.70;3.17;;;18.00;76.40;;;;;;5033292;28;20032;-75
2023/06/02 02:20:39;;;;;;;10.27;2.85;;;18.00;76.30;;;;;;5034455;28;20034;-75
2023/06/02 02:23:05;;;;;;;9.85;3.15;;;18.00;76.40;;;;;;5034209;28;20439;-76
2023/06/02 02:25:30;;;;;;;12.85;3.13;;;18.00;76.40;;;;;;5034188;28;20486;-76
2023/06/02 02:27:56;;;;;;;7.50;3.25;;;18.00;76.40;;;;;;5033797;28;20022;-76
2023/06/02 02:30:21;;;;;;;8.68;2.83;;;18.00;76.30;;;;;;5034139;28;20018;-75
2023/06/02 02:32:47;;;;;;;10.18;3.03;;;18.00;76.50;;;;;;5033876;28;20498;-75
2023/06/02 02:35:13;;;;;;;9.85;3.38;;;17.90;76.50;;;;;;5033916;28;20428;-75
2023/06/02 02:37:38;;;;;;;14.50;3.33;;;18.00;76.40;;;;;;5033785;28;20033;-75
2023/06/02 02:40:05;;;;;;;11.75;3.40;;;17.90;76.40;;;;;;5033725;28;20033;-74
2023/06/02 02:42:33;;;;;;;10.07;3.60;;;17.90;76.50;;;;;;5033703;28;20366;-75
2023/06/02 02:45:00;;;;;;;10.98;3.25;;;17.90;76.50;;;;;;5033467;28;20022;-74
2023/06/02 02:47:26;;;;;;;12.43;3.50;;;17.90;76.40;;;;;;5033725;28;20022;-75
2023/06/02 02:49:51;;;;;;;14.13;3.65;;;17.90;76.50;;;;;;5033677;28;20036;-74
2023/06/02 02:52:17;;;;;;;12.43;3.70;;;17.90;76.60;;;;;;5033625;28;20025;-74
2023/06/02 02:54:43;;;;;;;10.57;3.10;;;17.80;76.50;;;;;;5033694;28;20017;-74
2023/06/02 02:57:08;;;;;;;9.20;3.65;;;17.80;76.60;;;;;;5033509;28;20414;-75
2023/06/02 02:59:35;;;;;;;8.75;3.17;;;17.90;76.70;;;;;;5033277;28;20124;-75
2023/06/02 03:02:02;;;;;;;11.73;3.63;;;17.90;77.40;;;;;;5033319;28;20033;-75
2023/06/02 03:04:27;;;;;;;9.50;3.35;;;17.90;76.70;;;;;;5033308;28;20021;-75
2023/06/02 03:06:54;;;;;;;10.65;3.67;;;17.80;76.70;;;;;;5033474;28;20475;-74
2023/06/02 03:09:20;;;;;;;9.32;3.17;;;17.80;76.70;;;;;;5033390;28;20386;-74
2023/06/02 03:11:46;;;;;;;11.57;3.80;;;17.80;76.90;;;;;;5033355;28;20522;-75
2023/06/02 03:14:12;;;;;;;11.30;3.65;;;17.80;77.10;;;;;;5032954;28;20382;-75
2023/06/02 03:16:41;;;;;;;9.68;3.35;;;17.80;77.30;;;;;;5033523;28;20100;-75
2023/06/02 03:19:14;;;;;;;9.52;2.92;;;17.80;77.50;;;;;;5033069;28;20036;-75
2023/06/02 03:21:44;;;;;;;10.10;3.10;;;17.80;77.60;;;;;;5033447;28;20029;-74
2023/06/02 03:24:15;;;;;;;12.85;3.30;;;17.80;77.70;;;;;;5048401;28;20072;-75
2023/06/02 03:26:42;;;;;;;12.18;3.20;;;17.80;77.80;;;;;;5048551;28;20014;-75
2023/06/02 03:29:09;;;;;;;12.30;3.67;;;17.70;77.80;;;;;;5032458;28;20132;-74
2023/06/02 03:31:35;;;;;;;9.32;3.33;;;17.70;77.90;;;;;;5033195;28;20022;-75
2023/06/02 03:34:01;;;;;;;12.77;3.40;;;17.70;78.10;;;;;;5033120;28;20029;-74
2023/06/02 03:36:27;;;;;;;15.65;3.55;;;17.70;78.00;;;;;;5033004;28;20478;-75
2023/06/02 03:38:52;;;;;;;12.93;3.17;;;17.70;78.00;;;;;;5032943;28;20029;-75
2023/06/02 03:41:18;;;;;;;8.32;3.10;;;17.70;78.10;;;;;;5033152;28;20108;-75
2023/06/02 03:43:44;;;;;;;9.52;3.42;;;17.60;78.00;;;;;;5032660;28;20017;-75
2023/06/02 03:46:09;;;;;;;13.75;3.38;;;17.60;78.10;;;;;;5034709;28;20037;-74
2023/06/02 03:48:35;;;;;;;8.85;3.08;;;17.60;78.10;;;;;;5033387;28;20018;-75
2023/06/02 03:51:01;;;;;;;12.23;3.88;;;17.60;78.10;;;;;;5048556;28;20040;-74
2023/06/02 03:53:27;;;;;;;10.88;3.30;;;17.60;78.00;;;;;;5046442;28;20079;-74
2023/06/02 03:55:52;;;;;;;10.98;3.60;;;17.60;78.00;;;;;;5032899;28;20497;-74
2023/06/02 03:58:19;;;;;;;11.52;3.45;;;17.60;78.00;;;;;;5032975;28;20034;-74
2023/06/02 04:00:46;;;;;;;10.90;3.78;;;17.60;78.00;;;;;;5032654;28;20067;-74
2023/06/02 04:03:11;;;;;;;11.95;4.05;;;17.60;78.00;;;;;;5038851;28;20021;-74
2023/06/02 04:05:37;;;;;;;11.35;3.50;;;17.60;78.00;;;;;;5052686;28;20040;-74
2023/06/02 04:08:03;;;;;;;12.02;3.83;;;17.40;77.90;;;;;;5052675;28;20351;-74
2023/06/02 04:10:30;;;;;;;13.80;3.55;;;17.50;78.10;;;;;;5052677;28;20025;-74
2023/06/02 04:12:56;;;;;;;9.35;2.88;;;17.20;79.10;;;;;;5046042;28;20032;-73
2023/06/02 04:15:22;;;;;;;12.80;3.38;;;17.10;79.30;;;;;;5052460;28;20100;-73
2023/06/02 04:17:47;;;;;;;12.07;3.97;;;17.00;79.80;;;;;;5052751;28;20102;-73
2023/06/02 04:20:13;;;;;;;8.90;3.35;;;17.00;79.70;;;;;;5069886;28;20059;-73
2023/06/02 04:22:38;;;;;;;11.82;3.75;;;17.00;79.60;;;;;;5057852;28;20029;-73
2023/06/02 04:25:05;;;;;;;11.75;3.90;;;17.00;79.70;;;;;;5050699;28;20023;-73
2023/06/02 04:27:31;;;;;;;13.27;4.15;;;17.00;79.70;;;;;;5050173;28;20029;-73
2023/06/02 04:29:57;;;;;;;14.07;3.83;;;16.90;79.80;;;;;;5049712;28;20061;-73
2023/06/02 04:32:23;;;;;;;14.75;4.03;;;16.90;79.90;;;;;;5050470;28;20017;-72
2023/06/02 04:34:50;;;;;;;9.98;3.17;;;16.90;80.20;;;;;;5052144;28;20074;-73
2023/06/02 04:37:16;;;;;;;11.13;3.55;;;16.90;80.20;;;;;;5052385;28;20434;-72
2023/06/02 04:39:46;;;;;;;11.10;4.00;;;16.90;80.30;;;;;;5050938;28;20490;-72
2023/06/02 04:42:13;;;;;;;7.82;3.03;;;16.90;79.90;;;;;;5054189;28;20542;-73
2023/06/02 04:44:39;;;;;;;12.30;3.70;;;16.80;79.90;;;;;;5055809;28;20470;-73
2023/06/02 04:47:05;;;;;;;11.95;3.47;;;16.80;79.80;;;;;;5055998;28;20108;-73
2023/06/02 04:49:31;;;;;;;9.82;3.33;;;16.80;79.50;;;;;;5055938;28;20079;-73
2023/06/02 04:51:57;;;;;;;13.45;3.22;;;16.80;79.20;;;;;;5055555;28;20482;-73
2023/06/02 04:54:23;;;;;;;10.25;2.80;;;16.80;79.40;;;;;;5055744;28;20024;-73
2023/06/02 04:56:48;;;;;;;8.20;3.53;;;16.80;79.30;;;;;;5055393;28;20100;-73
2023/06/02 04:59:14;;;;;;;9.80;3.08;;;16.80;78.90;;;;;;5055581;28;20045;-73
2023/06/02 05:01:40;;;;;;;12.18;3.70;;;16.80;79.20;;;;;;5055595;28;20029;-73
2023/06/02 05:04:06;;;;;;;12.95;4.00;;;16.70;79.10;;;;;;5055600;28;20025;-72
2023/06/02 05:06:31;;;;;;;9.88;3.45;;;16.70;79.30;;;;;;5054903;28;20100;-73
2023/06/02 05:08:57;;;;;;;12.75;4.03;;;16.70;79.50;;;;;;5054977;28;20029;-73
2023/06/02 05:11:23;;;;;;;10.07;3.70;;;16.70;79.60;;;;;;5055185;28;20021;-73
2023/06/02 05:13:48;;;;;;;11.55;3.83;;;16.60;79.60;;;;;;5055340;28;20020;-73
2023/06/02 05:16:14;;;;;;;10.80;3.72;;;16.70;79.50;;;;;;5055300;28;20025;-73
2023/06/02 05:18:40;;;;;;;13.52;3.83;;;16.70;79.20;;;;;;5055376;28;20032;-73
2023/06/02 05:21:05;;;;;;;10.27;3.65;;;16.70;79.20;;;;;;5055171;28;20106;-73
2023/06/02 05:23:31;;;;;;;12.52;4.22;;;16.70;79.20;;;;;;5055077;28;20048;-73
2023/06/02 05:25:56;;;;;;;13.55;4.25;;;16.70;79.40;;;;;;5054858;28;20020;-72
2023/06/02 05:28:22;;;;;;;10.13;4.10;;;16.70;79.60;;;;;;5054895;28;20175;-71
2023/06/02 05:30:47;;;;;;;17.83;4.60;;;16.70;79.40;;;;;;5055406;28;20033;-74
2023/06/02 05:33:13;;;;;;;14.93;4.20;;;16.90;79.50;;;;;;5055137;28;20452;-74
2023/06/02 05:35:38;;;;;;;10.40;3.75;;;17.10;78.70;;;;;;5055214;28;20021;-79
2023/06/02 05:38:05;;;;;;;9.05;3.35;;;17.10;78.50;;;;;;5037786;28;20463;-75
2023/06/02 05:40:30;;;;;;;12.32;3.72;;;17.20;78.40;;;;;;5037084;28;20040;-75
2023/06/02 05:42:56;;;;;;;11.02;3.85;;;17.10;78.10;;;;;;5041217;28;20112;-83
2023/06/02 05:45:21;;;;;;;15.20;3.72;;;17.10;78.00;;;;;;5037693;28;20517;-73
2023/06/02 05:47:48;;;;;;;10.32;3.28;;;17.10;78.20;;;;;;5035344;28;20521;-79
2023/06/02 05:50:13;;;;;;;11.65;3.38;;;17.10;78.20;;;;;;5035165;28;20044;-74
2023/06/02 05:52:39;;;;;;;9.45;3.53;;;17.10;78.50;;;;;;5033402;28;20486;-73
2023/06/02 05:55:05;;;;;;;8.82;3.20;;;17.10;78.20;;;;;;5043170;28;20051;-78
2023/06/02 05:57:31;;;;;;;8.05;3.20;;;17.10;78.20;;;;;;5043690;28;20029;-74
2023/06/02 05:59:56;;;;;;;8.05;3.20;;;17.10;78.10;;;;;;5034435;28;20029;-74
2023/06/02 06:02:22;;;;;;;8.45;2.60;;;17.10;78.20;;;;;;5046904;28;21831;-74
2023/06/02 06:04:48;;;;;;;9.65;2.75;;;17.10;78.00;;;;;;5048242;28;20028;-74
2023/06/02 06:07:13;;;;;;;11.18;3.03;;;17.10;78.00;;;;;;5035821;28;20033;-74
2023/06/02 06:09:39;;;;;;;10.52;2.80;;;17.10;78.10;;;;;;5034106;28;20026;-73
2023/06/02 06:12:05;;;;;;;9.30;2.60;;;17.10;78.20;;;;;;5038651;28;20022;-74
2023/06/02 06:14:31;;;;;;;6.47;2.75;;;17.00;78.00;;;;;;5033564;28;20430;-73
2023/06/02 06:16:56;;;;;;;7.90;2.67;;;17.00;79.00;;;;;;5040877;28;20033;-68
2023/06/02 06:19:22;;;;;;;6.93;2.53;;;17.10;78.40;;;;;;5034284;28;20017;-76
2023/06/02 06:21:48;;;;;;;9.90;2.75;;;17.10;78.20;;;;;;5045521;28;20036;-71
2023/06/02 06:24:14;;;;;;;7.10;2.53;;;17.10;78.40;;;;;;5039532;28;20387;-73
2023/06/02 06:26:40;;;;;;;9.38;3.00;;;17.10;78.20;;;;;;5070710;28;20108;-79
2023/06/02 06:29:05;;;;;;;7.50;2.75;;;16.90;78.30;;;;;;5070553;28;20033;-75
2023/06/02 06:31:32;;;;;;;9.55;2.60;;;16.90;78.70;;;;;;5073541;28;20017;-78
2023/06/02 06:33:58;;;;;;;8.98;2.42;;;16.90;78.80;;;;;;5072649;28;20100;-76
2023/06/02 06:36:24;;;;;;;11.77;3.10;;;17.00;78.80;;;;;;5071695;28;20025;-79
2023/06/02 06:38:49;;;;;;;13.10;2.88;;;16.90;78.90;;;;;;5073481;28;20032;-80
2023/06/02 06:41:15;;;;;;;10.10;2.47;;;16.80;78.90;;;;;;5065087;28;20086;-75
2023/06/02 06:43:40;;;;;;;7.57;3.00;;;17.00;79.00;;;;;;5045227;28;20060;-74
2023/06/02 06:46:06;;;;;;;5.38;2.45;;;17.00;78.80;;;;;;5042634;28;20017;-76
2023/06/02 06:48:31;;;;;;;12.75;3.42;;;17.00;78.70;;;;;;5037982;28;20029;-79
2023/06/02 06:50:57;;;;;;;8.65;2.67;;;16.80;78.60;;;;;;5041772;28;20017;-73
2023/06/02 06:53:22;;;;;;;8.25;2.88;;;16.90;78.90;;;;;;5068605;28;20024;-81
2023/06/02 06:55:48;;;;;;;8.00;2.92;;;16.90;78.80;;;;;;5059211;28;20031;-75
2023/06/02 06:58:14;;;;;;;9.18;2.70;;;16.90;78.70;;;;;;5040052;28;20096;-77
2023/06/02 07:00:40;;;;;;;5.88;2.17;;;16.80;79.00;;;;;;5073390;28;20036;-74
2023/06/02 07:03:05;;;;;;;9.75;2.92;;;16.90;78.90;;;;;;5073203;28;20477;-73
2023/06/02 07:05:31;;;;;;;7.35;2.67;;;16.90;79.30;;;;;;5072390;28;20358;-73
2023/06/02 07:07:58;;;;;;;9.65;2.63;;;17.00;79.40;;;;;;5069723;28;20016;-74
2023/06/02 07:10:23;;;;;;;9.55;2.78;;;17.00;79.30;;;;;;5072512;28;20028;-74
2023/06/02 07:12:49;;;;;;;7.18;2.67;;;17.00;79.00;;;;;;5072933;28;20028;-74
2023/06/02 07:15:15;;;;;;;7.53;3.10;;;17.10;78.80;;;;;;5034628;28;20033;-73
2023/06/02 07:17:41;;;;;;;10.73;2.67;;;17.10;79.00;;;;;;5033127;28;20032;-74
2023/06/02 07:20:12;;;;;;;8.38;2.95;;;17.00;78.80;;;;;;5033195;28;20124;-73
2023/06/02 07:22:39;;;;;;;10.23;2.88;;;17.00;79.10;;;;;;5050295;28;20013;-73
2023/06/02 07:25:06;;;;;;;8.55;2.55;;;17.00;79.20;;;;;;5050757;28;20025;-77
2023/06/02 07:27:32;;;;;;;11.88;3.20;;;17.00;79.30;;;;;;5052448;28;20024;-73
2023/06/02 07:29:59;;;;;;;10.38;3.05;;;17.00;79.30;;;;;;5051364;28;20040;-74
2023/06/02 07:32:25;;;;;;;11.80;2.78;;;17.00;79.30;;;;;;5053747;28;20009;-73
2023/06/02 07:34:50;;;;;;;12.80;3.60;;;17.10;79.40;;;;;;5056603;28;20078;-73
2023/06/02 07:37:16;;;;;;;11.40;3.60;;;17.00;79.20;;;;;;5052544;28;20099;-74
2023/06/02 07:39:42;;;;;;;11.05;3.20;;;17.00;79.20;;;;;;5052074;28;20037;-73
2023/06/02 07:42:08;;;;;;;8.43;2.63;;;17.10;79.10;;;;;;5052448;28;20032;-73
2023/06/02 07:44:34;;;;;;;11.55;2.70;;;17.00;78.80;;;;;;5052120;28;20454;-73
2023/06/02 07:46:59;;;;;;;12.40;2.90;;;17.10;79.00;;;;;;5051269;28;20021;-74
2023/06/02 07:49:25;;;;;;;6.75;2.70;;;17.00;78.90;;;;;;5050973;28;20119;-74
2023/06/02 07:51:51;;;;;;;11.07;3.30;;;17.10;79.10;;;;;;5052116;28;20025;-74
2023/06/02 07:54:17;;;;;;;12.80;3.40;;;17.10;79.30;;;;;;5052627;28;20087;-72
2023/06/02 07:56:42;;;;;;;9.20;3.10;;;17.10;78.90;;;;;;5052806;28;20025;-72
2023/06/02 07:59:11;;;;;;;13.00;2.97;;;17.10;79.00;;;;;;5052538;28;20436;-72
2023/06/02 08:01:38;;;;;;;6.82;3.00;;;17.10;79.00;;;;;;5052876;28;20029;-72
2023/06/02 08:04:04;;;;;;;10.18;3.17;;;17.20;78.60;;;;;;5052436;28;20108;-72
2023/06/02 08:06:30;;;;;;;12.75;2.92;;;17.10;78.40;;;;;;5052791;28;20451;-74
2023/06/02 08:08:55;;;;;;;13.13;3.58;;;17.10;78.50;;;;;;5052603;28;20374;-73
2023/06/02 08:11:22;;;;;;;10.50;3.08;;;17.00;78.10;;;;;;5051416;28;20474;-72
2023/06/02 08:13:49;;;;;;;9.50;2.70;;;17.00;78.40;;;;;;5052868;28;20031;-73
2023/06/02 08:16:14;;;;;;;11.73;3.60;;;17.10;78.80;;;;;;5053686;28;20021;-73
2023/06/02 08:18:40;;;;;;;10.10;3.25;;;17.00;78.60;;;;;;5055891;28;20363;-72
2023/06/02 08:21:06;;;;;;;13.65;3.13;;;17.10;78.80;;;;;;5056160;28;20082;-73
2023/06/02 08:23:32;;;;;;;11.57;2.88;;;17.10;78.40;;;;;;5056575;28;20104;-77
2023/06/02 08:25:58;;;;;;;10.52;2.88;;;17.10;78.00;;;;;;5056337;28;20104;-77
2023/06/02 08:28:25;;;;;;;11.95;2.70;;;17.00;78.40;;;;;;5056155;28;20044;-74
2023/06/02 08:30:52;;;;;;;9.93;2.92;;;17.10;78.30;;;;;;5056118;28;20025;-76
2023/06/02 08:33:19;;;;;;;10.43;2.65;;;17.00;78.50;;;;;;5055976;28;20028;-77
2023/06/02 08:35:46;;;;;;;8.23;2.65;;;17.00;78.60;;;;;;5056121;28;20370;-73
2023/06/02 08:38:16;;;;;;;11.10;2.85;;;17.10;78.80;;;;;;5056177;28;20126;-77
2023/06/02 08:40:45;;;;;;;11.27;3.20;;;17.10;78.90;;;;;;5056060;28;20043;-78
2023/06/02 08:43:13;;;;;;;11.40;3.20;;;17.00;78.60;;;;;;5054608;28;20102;-77
2023/06/02 08:45:48;;;;;;;11.77;3.10;;;16.90;78.90;;;;;;5056073;28;20029;-77
2023/06/02 08:48:16;;;;;;;10.57;2.53;;;16.90;78.90;;;;;;5055388;28;20028;-73
2023/06/02 08:50:46;;;;;;;9.63;2.90;;;17.00;78.50;;;;;;5055874;28;20024;-75
2023/06/02 08:53:14;;;;;;;10.73;2.83;;;17.00;78.60;;;;;;5056006;28;20013;-76
2023/06/02 08:55:41;;;;;;;11.13;2.83;;;17.10;78.30;;;;;;5055766;28;20021;-73
2023/06/02 08:58:10;;;;;;;12.20;3.50;;;17.00;78.20;;;;;;5055927;28;20411;-73
2023/06/02 09:00:39;;;;;;;9.57;2.72;;;17.00;78.50;;;;;;5055652;28;20029;-72
2023/06/02 09:03:05;;;;;;;10.45;3.55;;;17.20;78.50;;;;;;5055288;28;20033;-72
2023/06/02 09:05:32;;;;;;;12.23;3.80;;;17.20;78.10;;;;;;5055557;28;20021;-73
2023/06/02 09:08:09;;;;;;;9.10;2.97;;;17.10;77.90;;;;;;5052293;28;20021;-73
2023/06/02 09:10:41;;;;;;;10.00;2.80;;;16.90;78.30;;;;;;5054486;28;20056;-73
2023/06/02 09:13:08;;;;;;;;;;;16.90;78.40;;;;;;5053604;28;20119;-72
2023/06/02 09:15:35;;;;;;;8.60;2.88;;;17.10;78.60;;;;;;5055381;28;20377;-72
2023/06/02 09:18:14;;;;;;;8.80;2.55;;;17.10;78.30;;;;;;5055196;28;20505;-72
2023/06/02 09:20:40;;;;;;;11.60;3.13;;;17.20;78.30;;;;;;5055225;28;20449;-72
2023/06/02 09:23:06;;;;;;;10.73;3.50;;;17.30;77.90;;;;;;5055278;28;20425;-73
2023/06/02 09:25:33;;;;;;;9.43;3.42;;;17.30;78.00;;;;;;5055209;28;20017;-72
2023/06/02 09:28:00;;;;;;;11.02;3.08;;;17.30;78.00;;;;;;5054589;28;20075;-75
2023/06/02 09:30:28;;;;;;;7.75;2.50;;;17.20;78.50;;;;;;5054927;28;20032;-72
2023/06/02 09:32:57;;;;;;;12.93;3.30;;;17.30;78.00;;;;;;5055019;28;20025;-72
2023/06/02 09:35:37;;;;;;;10.43;2.80;;;17.20;77.80;;;;;;5055059;28;20413;-72
2023/06/02 09:38:07;;;;;;;9.32;2.70;;;17.30;78.00;;;;;;5054988;28;20478;-72
2023/06/02 09:40:35;;;;;;;11.68;3.15;;;17.40;78.10;;;;;;5051661;28;20025;-72
2023/06/02 09:43:11;;;;;;;10.20;3.30;;;17.40;77.80;;;;;;5050846;28;20497;-73
2023/06/02 09:45:49;;;;;;;13.13;3.45;;;17.50;77.80;;;;;;5041956;28;20018;-72
2023/06/02 09:48:20;;;;;;;10.05;3.08;;;17.60;77.90;;;;;;5032700;28;20021;-72
2023/06/02 09:50:45;;;;;;;10.88;3.05;;;17.70;77.70;;;;;;5034100;28;20014;-80
2023/06/02 09:53:13;;;;;;;13.75;3.45;;;17.60;77.10;;;;;;5033798;28;20096;-73
2023/06/02 09:55:39;;;;;;;12.68;3.10;;;17.70;77.60;;;;;;5034045;28;20451;-72
2023/06/02 09:58:07;;;;;;;14.95;3.38;;;17.70;77.70;;;;;;5035746;28;20053;-80
2023/06/02 10:00:35;;;;;;;12.38;3.47;;;17.70;77.30;;;;;;5037923;28;20033;-80
2023/06/02 10:03:01;;;;;;;13.55;3.67;;;17.70;77.10;;;;;;5033718;28;20390;-78
2023/06/02 10:05:28;;;;;;;11.57;3.63;;;17.60;76.70;;;;;;5033889;28;20470;-79
2023/06/02 10:08:17;;;;;;;12.48;3.63;;;17.40;76.60;;;;;;5032954;28;20387;-77
2023/06/02 10:11:09;;;;;;;8.93;2.90;;;17.40;77.40;;;;;;5032315;28;20018;-76
2023/06/02 10:13:52;;;;;;;11.63;3.10;;;17.40;77.30;;;;;;5037745;28;20474;-79
2023/06/02 10:16:51;;;;;;;8.85;3.60;;;17.40;78.00;;;;;;5034044;28;20041;-78
2023/06/02 10:20:13;;;;;;;10.82;3.78;;;17.60;77.60;;;;;;5034321;28;20037;-73
2023/06/02 10:22:56;;;;;;;10.23;2.58;;;17.70;77.40;;;;;;5016542;28;20439;-79
2023/06/02 10:25:43;;;;;;;11.30;3.50;;;17.70;77.40;;;;;;5034205;28;20096;-78
2023/06/02 10:28:10;;;;;;;11.85;3.10;;;17.70;77.70;;;;;;5033533;28;20562;-72
2023/06/02 10:30:36;;;;;;;9.35;3.33;;;17.80;78.00;;;;;;5032258;28;20026;-72
2023/06/02 10:33:02;;;;;;;15.02;3.50;;;17.90;77.30;;;;;;5030418;28;20382;-71
2023/06/02 10:35:56;;;;;;;9.23;3.83;;;17.90;77.10;;;;;;5032026;28;20028;-77
2023/06/02 10:38:27;;;;;;;12.98;3.30;;;17.90;76.70;;;;;;5033015;28;20493;-71
2023/06/02 10:40:54;;;;;;;10.18;3.72;;;18.00;77.10;;;;;;5033261;28;20501;-71
2023/06/02 10:43:20;;;;;;;11.48;2.75;;;18.10;77.60;;;;;;5037137;28;20020;-71
2023/06/02 10:45:46;;;;;;;9.35;3.25;;;18.10;77.20;;;;;;5053621;28;20063;-71
2023/06/02 10:48:38;;;;;;;15.05;4.25;;;18.10;77.40;;;;;;5053663;28;20151;-71
2023/06/02 10:51:05;;;;;;;7.82;2.78;;;18.20;76.00;;;;;;5052602;28;20546;-79
2023/06/02 10:53:30;;;;;;;11.10;3.30;;;18.10;76.30;;;;;;5051591;28;20526;-79
2023/06/02 10:55:56;;;;;;;8.02;3.20;;;18.10;76.20;;;;;;5049000;28;20021;-72
2023/06/02 10:58:48;;;;;;;10.02;3.33;;;18.20;76.30;;;;;;5051883;28;20252;-71
2023/06/02 11:01:47;;;;;;;11.95;3.00;;;18.30;76.40;;;;;;5051689;28;20041;-72
2023/06/02 11:04:36;;;;;;;8.38;3.10;;;18.20;75.70;;;;;;5043075;28;20032;-74
2023/06/02 11:07:18;;;;;;;11.27;3.92;;;18.30;75.90;;;;;;5049355;28;20032;-71
2023/06/02 11:09:47;;;;;;;10.95;4.65;;;18.20;75.60;;;;;;5052406;28;20021;-72
2023/06/02 11:12:12;;;;;;;8.55;4.20;;;18.20;75.80;;;;;;5050613;28;20033;-71
2023/06/02 11:15:00;;;;;;;11.50;4.53;;;18.10;75.40;;;;;;5051554;28;20039;-71
2023/06/02 11:17:30;;;;;;;11.20;3.25;;;18.20;76.40;;;;;;5052732;28;20052;-71
2023/06/02 11:19:57;;;;;;;6.95;2.83;;;18.20;76.50;;;;;;5051064;28;20025;-71
2023/06/02 11:22:23;;;;;;;17.02;4.28;;;18.30;76.80;;;;;;5050646;28;20025;-71
2023/06/02 11:24:50;;;;;;;12.85;4.18;;;18.30;76.80;;;;;;5052530;28;20035;-71
2023/06/02 11:27:15;;;;;;;11.60;3.90;;;18.30;75.60;;;;;;5051409;28;20107;-72
2023/06/02 11:29:44;;;;;;;11.98;3.85;;;18.20;76.20;;;;;;5052190;28;20116;-71
2023/06/02 11:32:13;;;;;;;9.23;3.63;;;18.20;76.40;;;;;;5053611;28;20017;-72
2023/06/02 11:34:39;;;;;;;8.07;3.28;;;18.20;76.20;;;;;;5050076;28;20051;-71
2023/06/02 11:37:14;;;;;;;10.57;3.20;;;18.20;76.10;;;;;;5050909;28;20064;-72
2023/06/02 11:39:53;;;;;;;16.27;3.90;;;18.20;76.90;;;;;;5050283;28;20037;-72
2023/06/02 11:42:18;;;;;;;16.30;3.53;;;18.20;76.50;;;;;;5051061;28;20010;-79
2023/06/02 11:44:50;;;;;;;12.95;3.88;;;18.30;76.60;;;;;;5052589;28;20071;-75
2023/06/02 11:47:20;;;;;;;13.43;3.72;;;18.30;76.40;;;;;;5046703;28;20029;-77
2023/06/02 11:49:47;;;;;;;8.25;3.35;;;18.30;75.90;;;;;;5042612;28;20064;-79
2023/06/02 11:52:12;;;;;;;11.32;4.40;;;18.30;75.90;;;;;;5056535;28;20472;-80
2023/06/02 11:54:52;;;;;;;13.57;4.03;;;18.20;75.80;;;;;;5056373;28;20047;-75
2023/06/02 11:57:33;;;;;;;11.68;4.10;;;18.20;76.10;;;;;;5055820;28;20107;-78
2023/06/02 12:00:09;;;;;;;8.60;3.63;;;18.30;76.40;;;;;;5054838;28;20044;-74
2023/06/02 12:02:43;;;;;;;12.23;3.97;;;18.30;76.00;;;;;;5056264;28;20055;-80
2023/06/02 12:05:29;;;;;;;9.45;3.67;;;18.30;75.70;;;;;;5056389;28;20021;-76
2023/06/02 12:07:56;;;;;;;9.35;3.55;;;18.40;75.90;;;;;;5046610;28;20096;-73
2023/06/02 12:10:21;;;;;;;11.07;3.53;;;18.40;76.40;;;;;;5040810;28;20029;-76
2023/06/02 12:12:47;;;;;;;10.07;3.83;;;18.40;76.30;;;;;;5048965;28;20018;-73
2023/06/02 12:15:17;;;;;;;11.95;4.13;;;18.40;76.70;;;;;;5039339;28;20490;-72
2023/06/02 12:17:44;;;;;;;11.18;4.18;;;18.40;77.40;;;;;;5056467;28;20059;-79
2023/06/02 12:20:10;;;;;;;12.90;3.92;;;18.30;75.50;;;;;;5041041;28;20044;-76
2023/06/02 12:22:50;;;;;;;7.22;2.58;;;18.30;77.20;;;;;;5038542;28;20025;-73
2023/06/02 12:25:15;;;;;;;13.77;3.55;;;18.40;78.80;;;;;;5038970;28;20033;-75
2023/06/02 12:27:41;;;;;;;11.25;3.42;;;18.50;77.80;;;;;;5039972;28;20539;-74
2023/06/02 12:30:07;;;;;;;12.88;3.22;;;18.50;78.10;;;;;;5053440;28;20033;-74
2023/06/02 12:32:33;;;;;;;13.00;3.70;;;18.60;77.70;;;;;;5054394;28;20017;-75
2023/06/02 12:34:58;;;;;;;10.65;4.18;;;18.60;77.00;;;;;;5053315;28;20043;-77
2023/06/02 12:37:24;;;;;;;10.45;4.05;;;18.70;76.60;;;;;;5044501;28;20025;-75
2023/06/02 12:39:50;;;;;;;12.20;3.72;;;18.60;77.10;;;;;;5037041;28;20033;-74
2023/06/02 12:42:18;;;;;;;10.38;3.92;;;18.60;76.90;;;;;;5051755;28;20029;-79
2023/06/02 12:44:44;;;;;;;13.00;4.82;;;18.60;78.10;;;;;;5055927;28;20021;-78